sensor_id;sensor_type;location;lat;lon;timestamp;P1;durP1;ratioP1;P2;durP2;ratioP2
56419;SDS011;42323;52.170;7.538;2023-06-19T00:01:03;7.22;;;5.65;;
56419;SDS011;42323;52.170;7.538;2023-06-19T00:03:29;7.10;;;5.72;;
56419;SDS011;42323;52.170;7.538;2023-06-19T00:05:56;6.70;;;5.80;;
56419;SDS011;42323;52.170;7.538;2023-06-19T00:08:22;6.63;;;5.57;;
56419;SDS011;42323;52.170;7.538;2023-06-19T00:10:49;6.60;;;5.60;;
56419;SDS011;42323;52.170;7.538;2023-06-19T00:13:15;6.25;;;5.22;;
56419;SDS011;42323;52.170;7.538;2023-06-19T00:15:42;6.65;;;4.93;;
56419;SDS011;42323;52.170;7.538;2023-06-19T00:18:09;6.10;;;5.50;;
56419;SDS011;42323;52.170;7.538;2023-06-19T00:20:36;6.40;;;5.40;;
56419;SDS011;42323;52.170;7.538;2023-06-19T00:23:05;6.32;;;5.63;;
56419;SDS011;42323;52.170;7.538;2023-06-19T00:25:36;7.32;;;5.20;;
56419;SDS011;42323;52.170;7.538;2023-06-19T00:28:03;6.68;;;5.40;;
56419;SDS011;42323;52.170;7.538;2023-06-19T00:30:30;7.57;;;5.63;;
56419;SDS011;42323;52.170;7.538;2023-06-19T00:32:58;6.25;;;5.40;;
56419;SDS011;42323;52.170;7.538;2023-06-19T00:35:29;6.28;;;5.38;;
56419;SDS011;42323;52.170;7.538;2023-06-19T00:37:56;6.55;;;5.45;;
56419;SDS011;42323;52.170;7.538;2023-06-19T00:40:29;6.25;;;5.50;;
56419;SDS011;42323;52.170;7.538;2023-06-19T00:42:57;5.93;;;5.00;;
56419;SDS011;42323;52.170;7.538;2023-06-19T00:45:24;7.20;;;5.60;;
56419;SDS011;42323;52.170;7.538;2023-06-19T00:47:52;6.57;;;5.35;;
56419;SDS011;42323;52.170;7.538;2023-06-19T00:50:22;5.83;;;5.20;;
56419;SDS011;42323;52.170;7.538;2023-06-19T00:52:50;6.10;;;5.43;;
56419;SDS011;42323;52.170;7.538;2023-06-19T00:55:17;6.05;;;5.45;;
56419;SDS011;42323;52.170;7.538;2023-06-19T00:57:45;7.25;;;5.40;;
56419;SDS011;42323;52.170;7.538;2023-06-19T01:00:12;6.37;;;5.50;;
56419;SDS011;42323;52.170;7.538;2023-06-19T01:02:39;6.60;;;5.57;;
56419;SDS011;42323;52.170;7.538;2023-06-19T01:05:06;6.40;;;5.50;;
56419;SDS011;42323;52.170;7.538;2023-06-19T01:07:48;6.18;;;5.40;;
56419;SDS011;42323;52.170;7.538;2023-06-19T01:10:21;6.03;;;5.30;;
56419;SDS011;42323;52.170;7.538;2023-06-19T01:12:56;6.47;;;5.57;;
56419;SDS011;42323;52.170;7.538;2023-06-19T01:15:26;6.13;;;5.15;;
56419;SDS011;42323;52.170;7.538;2023-06-19T01:17:54;6.47;;;5.63;;
56419;SDS011;42323;52.170;7.538;2023-06-19T01:20:23;6.75;;;5.40;;
56419;SDS011;42323;52.170;7.538;2023-06-19T01:22:51;7.70;;;5.93;;
56419;SDS011;42323;52.170;7.538;2023-06-19T01:25:23;6.63;;;5.72;;
56419;SDS011;42323;52.170;7.538;2023-06-19T01:27:50;7.65;;;5.95;;
56419;SDS011;42323;52.170;7.538;2023-06-19T01:30:17;7.30;;;6.30;;
56419;SDS011;42323;52.170;7.538;2023-06-19T01:35:36;6.80;;;6.07;;
56419;SDS011;42323;52.170;7.538;2023-06-19T01:38:04;5.87;;;5.20;;
56419;SDS011;42323;52.170;7.538;2023-06-19T01:40:33;6.05;;;5.45;;
56419;SDS011;42323;52.170;7.538;2023-06-19T01:43:01;6.75;;;5.65;;
56419;SDS011;42323;52.170;7.538;2023-06-19T01:45:30;7.53;;;5.70;;
56419;SDS011;42323;52.170;7.538;2023-06-19T01:47:58;6.50;;;5.72;;
56419;SDS011;42323;52.170;7.538;2023-06-19T01:50:25;7.40;;;5.90;;
56419;SDS011;42323;52.170;7.538;2023-06-19T01:52:52;6.60;;;5.90;;
56419;SDS011;42323;52.170;7.538;2023-06-19T01:55:18;7.45;;;5.93;;
56419;SDS011;42323;52.170;7.538;2023-06-19T01:57:45;7.72;;;5.90;;
56419;SDS011;42323;52.170;7.538;2023-06-19T02:00:12;6.38;;;5.63;;
56419;SDS011;42323;52.170;7.538;2023-06-19T02:02:39;6.35;;;5.20;;
56419;SDS011;42323;52.170;7.538;2023-06-19T02:05:06;7.25;;;5.40;;
56419;SDS011;42323;52.170;7.538;2023-06-19T02:07:32;6.45;;;5.65;;
56419;SDS011;42323;52.170;7.538;2023-06-19T02:09:59;6.15;;;5.50;;
56419;SDS011;42323;52.170;7.538;2023-06-19T02:12:26;6.43;;;5.47;;
56419;SDS011;42323;52.170;7.538;2023-06-19T02:14:52;6.60;;;5.80;;
56419;SDS011;42323;52.170;7.538;2023-06-19T02:17:19;6.65;;;5.40;;
56419;SDS011;42323;52.170;7.538;2023-06-19T02:19:45;6.00;;;5.40;;
56419;SDS011;42323;52.170;7.538;2023-06-19T02:22:12;6.63;;;5.60;;
56419;SDS011;42323;52.170;7.538;2023-06-19T02:24:38;7.43;;;5.95;;
56419;SDS011;42323;52.170;7.538;2023-06-19T02:27:05;6.13;;;5.25;;
56419;SDS011;42323;52.170;7.538;2023-06-19T02:29:32;7.20;;;5.20;;
56419;SDS011;42323;52.170;7.538;2023-06-19T02:32:03;7.05;;;5.63;;
56419;SDS011;42323;52.170;7.538;2023-06-19T02:34:29;6.93;;;5.63;;
56419;SDS011;42323;52.170;7.538;2023-06-19T02:36:56;6.70;;;5.30;;
56419;SDS011;42323;52.170;7.538;2023-06-19T02:39:23;6.75;;;5.65;;
56419;SDS011;42323;52.170;7.538;2023-06-19T02:41:49;6.38;;;5.20;;
56419;SDS011;42323;52.170;7.538;2023-06-19T02:44:16;6.25;;;5.53;;
56419;SDS011;42323;52.170;7.538;2023-06-19T02:46:43;7.50;;;5.55;;
56419;SDS011;42323;52.170;7.538;2023-06-19T02:49:09;7.28;;;5.80;;
56419;SDS011;42323;52.170;7.538;2023-06-19T02:51:36;6.70;;;5.72;;
56419;SDS011;42323;52.170;7.538;2023-06-19T02:54:03;7.50;;;5.75;;
56419;SDS011;42323;52.170;7.538;2023-06-19T02:56:30;6.25;;;5.47;;
56419;SDS011;42323;52.170;7.538;2023-06-19T02:58:56;7.45;;;5.60;;
56419;SDS011;42323;52.170;7.538;2023-06-19T03:01:23;6.63;;;5.28;;
56419;SDS011;42323;52.170;7.538;2023-06-19T03:03:50;6.53;;;5.57;;
56419;SDS011;42323;52.170;7.538;2023-06-19T03:06:18;7.40;;;5.60;;
56419;SDS011;42323;52.170;7.538;2023-06-19T03:08:45;7.13;;;5.63;;
56419;SDS011;42323;52.170;7.538;2023-06-19T03:11:12;7.00;;;6.03;;
56419;SDS011;42323;52.170;7.538;2023-06-19T03:16:13;5.77;;;5.13;;
56419;SDS011;42323;52.170;7.538;2023-06-19T03:18:41;6.43;;;5.38;;
56419;SDS011;42323;52.170;7.538;2023-06-19T03:21:08;6.28;;;5.53;;
56419;SDS011;42323;52.170;7.538;2023-06-19T03:23:35;6.07;;;5.40;;
56419;SDS011;42323;52.170;7.538;2023-06-19T03:26:03;7.35;;;5.53;;
56419;SDS011;42323;52.170;7.538;2023-06-19T03:28:29;6.90;;;5.60;;
56419;SDS011;42323;52.170;7.538;2023-06-19T03:30:56;6.13;;;5.53;;
56419;SDS011;42323;52.170;7.538;2023-06-19T03:33:22;6.85;;;5.78;;
56419;SDS011;42323;52.170;7.538;2023-06-19T03:35:49;7.78;;;6.05;;
56419;SDS011;42323;52.170;7.538;2023-06-19T03:38:15;7.43;;;6.10;;
56419;SDS011;42323;52.170;7.538;2023-06-19T03:40:42;7.22;;;6.05;;
56419;SDS011;42323;52.170;7.538;2023-06-19T03:43:08;6.95;;;6.00;;
56419;SDS011;42323;52.170;7.538;2023-06-19T03:45:36;6.23;;;5.40;;
56419;SDS011;42323;52.170;7.538;2023-06-19T03:48:03;7.27;;;6.27;;
56419;SDS011;42323;52.170;7.538;2023-06-19T03:50:30;8.10;;;6.38;;
56419;SDS011;42323;52.170;7.538;2023-06-19T03:52:56;6.40;;;5.63;;
56419;SDS011;42323;52.170;7.538;2023-06-19T03:55:23;7.68;;;6.15;;
56419;SDS011;42323;52.170;7.538;2023-06-19T03:57:50;6.65;;;5.45;;
56419;SDS011;42323;52.170;7.538;2023-06-19T04:00:19;6.60;;;5.95;;
56419;SDS011;42323;52.170;7.538;2023-06-19T04:02:45;6.55;;;5.68;;
56419;SDS011;42323;52.170;7.538;2023-06-19T04:05:13;7.32;;;6.10;;
56419;SDS011;42323;52.170;7.538;2023-06-19T04:07:41;7.88;;;6.20;;
56419;SDS011;42323;52.170;7.538;2023-06-19T04:10:08;8.23;;;6.75;;
56419;SDS011;42323;52.170;7.538;2023-06-19T04:12:34;7.05;;;5.82;;
56419;SDS011;42323;52.170;7.538;2023-06-19T04:15:01;7.07;;;6.00;;
56419;SDS011;42323;52.170;7.538;2023-06-19T04:17:28;9.02;;;6.90;;
56419;SDS011;42323;52.170;7.538;2023-06-19T04:19:54;6.97;;;6.13;;
56419;SDS011;42323;52.170;7.538;2023-06-19T04:22:21;7.38;;;5.72;;
56419;SDS011;42323;52.170;7.538;2023-06-19T04:24:47;7.68;;;6.05;;
56419;SDS011;42323;52.170;7.538;2023-06-19T04:27:14;8.40;;;6.20;;
56419;SDS011;42323;52.170;7.538;2023-06-19T04:29:40;7.03;;;5.97;;
56419;SDS011;42323;52.170;7.538;2023-06-19T04:32:07;7.28;;;5.82;;
56419;SDS011;42323;52.170;7.538;2023-06-19T04:34:38;6.75;;;5.85;;
56419;SDS011;42323;52.170;7.538;2023-06-19T04:37:05;8.57;;;6.00;;
56419;SDS011;42323;52.170;7.538;2023-06-19T04:39:31;7.93;;;5.57;;
56419;SDS011;42323;52.170;7.538;2023-06-19T04:42:01;6.75;;;5.63;;
56419;SDS011;42323;52.170;7.538;2023-06-19T04:44:27;6.85;;;5.38;;
56419;SDS011;42323;52.170;7.538;2023-06-19T04:46:56;7.18;;;5.45;;
56419;SDS011;42323;52.170;7.538;2023-06-19T04:49:28;7.78;;;5.35;;
56419;SDS011;42323;52.170;7.538;2023-06-19T04:51:57;6.27;;;5.17;;
56419;SDS011;42323;52.170;7.538;2023-06-19T04:54:24;5.93;;;5.07;;
56419;SDS011;42323;52.170;7.538;2023-06-19T04:56:52;6.57;;;5.25;;
56419;SDS011;42323;52.170;7.538;2023-06-19T04:59:19;5.65;;;4.95;;
56419;SDS011;42323;52.170;7.538;2023-06-19T05:01:47;6.00;;;5.10;;
56419;SDS011;42323;52.170;7.538;2023-06-19T05:04:14;8.23;;;5.20;;
56419;SDS011;42323;52.170;7.538;2023-06-19T05:06:40;6.53;;;5.20;;
56419;SDS011;42323;52.170;7.538;2023-06-19T05:09:08;6.35;;;4.68;;
56419;SDS011;42323;52.170;7.538;2023-06-19T05:11:35;7.03;;;4.78;;
56419;SDS011;42323;52.170;7.538;2023-06-19T05:14:02;6.28;;;4.70;;
56419;SDS011;42323;52.170;7.538;2023-06-19T05:16:29;6.03;;;4.97;;
56419;SDS011;42323;52.170;7.538;2023-06-19T05:18:56;6.38;;;4.65;;
56419;SDS011;42323;52.170;7.538;2023-06-19T05:21:22;7.35;;;4.45;;
56419;SDS011;42323;52.170;7.538;2023-06-19T05:23:49;5.40;;;4.25;;
56419;SDS011;42323;52.170;7.538;2023-06-19T05:26:18;5.35;;;4.15;;
56419;SDS011;42323;52.170;7.538;2023-06-19T05:28:46;5.90;;;4.20;;
56419;SDS011;42323;52.170;7.538;2023-06-19T05:31:13;4.78;;;3.90;;
56419;SDS011;42323;52.170;7.538;2023-06-19T05:33:40;4.65;;;3.60;;
56419;SDS011;42323;52.170;7.538;2023-06-19T05:36:07;5.13;;;3.90;;
56419;SDS011;42323;52.170;7.538;2023-06-19T05:38:33;5.25;;;3.97;;
56419;SDS011;42323;52.170;7.538;2023-06-19T05:41:01;5.75;;;3.60;;
56419;SDS011;42323;52.170;7.538;2023-06-19T05:43:30;5.13;;;3.53;;
56419;SDS011;42323;52.170;7.538;2023-06-19T05:45:58;6.20;;;3.97;;
56419;SDS011;42323;52.170;7.538;2023-06-19T05:48:30;5.63;;;3.50;;
56419;SDS011;42323;52.170;7.538;2023-06-19T05:50:56;5.10;;;3.47;;
56419;SDS011;42323;52.170;7.538;2023-06-19T05:53:23;6.32;;;3.58;;
56419;SDS011;42323;52.170;7.538;2023-06-19T05:55:50;5.15;;;3.20;;
56419;SDS011;42323;52.170;7.538;2023-06-19T05:58:17;4.95;;;3.20;;
56419;SDS011;42323;52.170;7.538;2023-06-19T06:00:46;5.13;;;3.17;;
56419;SDS011;42323;52.170;7.538;2023-06-19T06:03:13;5.35;;;3.25;;
56419;SDS011;42323;52.170;7.538;2023-06-19T06:05:40;4.10;;;2.80;;
56419;SDS011;42323;52.170;7.538;2023-06-19T06:08:08;4.38;;;2.70;;
56419;SDS011;42323;52.170;7.538;2023-06-19T06:10:35;4.23;;;2.90;;
56419;SDS011;42323;52.170;7.538;2023-06-19T06:13:01;3.80;;;2.65;;
56419;SDS011;42323;52.170;7.538;2023-06-19T06:15:28;3.50;;;2.50;;
56419;SDS011;42323;52.170;7.538;2023-06-19T06:17:54;4.03;;;2.60;;
56419;SDS011;42323;52.170;7.538;2023-06-19T06:20:21;4.00;;;2.50;;
56419;SDS011;42323;52.170;7.538;2023-06-19T06:22:48;4.20;;;2.80;;
56419;SDS011;42323;52.170;7.538;2023-06-19T06:25:15;4.15;;;2.67;;
56419;SDS011;42323;52.170;7.538;2023-06-19T06:27:41;4.22;;;2.63;;
56419;SDS011;42323;52.170;7.538;2023-06-19T06:30:08;4.63;;;2.78;;
56419;SDS011;42323;52.170;7.538;2023-06-19T06:32:37;4.57;;;2.80;;
56419;SDS011;42323;52.170;7.538;2023-06-19T06:35:05;3.80;;;2.80;;
56419;SDS011;42323;52.170;7.538;2023-06-19T06:37:31;4.20;;;2.92;;
56419;SDS011;42323;52.170;7.538;2023-06-19T06:39:58;4.95;;;3.00;;
56419;SDS011;42323;52.170;7.538;2023-06-19T06:42:25;4.87;;;3.03;;
56419;SDS011;42323;52.170;7.538;2023-06-19T06:44:51;4.43;;;3.07;;
56419;SDS011;42323;52.170;7.538;2023-06-19T06:47:18;5.27;;;3.07;;
56419;SDS011;42323;52.170;7.538;2023-06-19T06:49:44;3.77;;;3.00;;
56419;SDS011;42323;52.170;7.538;2023-06-19T06:52:13;4.35;;;2.90;;
56419;SDS011;42323;52.170;7.538;2023-06-19T06:54:39;4.35;;;3.22;;
56419;SDS011;42323;52.170;7.538;2023-06-19T06:57:06;4.82;;;3.10;;
56419;SDS011;42323;52.170;7.538;2023-06-19T06:59:32;4.05;;;2.90;;
56419;SDS011;42323;52.170;7.538;2023-06-19T07:01:59;4.57;;;3.25;;
56419;SDS011;42323;52.170;7.538;2023-06-19T07:04:25;3.63;;;2.78;;
56419;SDS011;42323;52.170;7.538;2023-06-19T07:06:52;3.70;;;2.92;;
56419;SDS011;42323;52.170;7.538;2023-06-19T07:09:18;5.30;;;3.00;;
56419;SDS011;42323;52.170;7.538;2023-06-19T07:11:47;5.20;;;3.50;;
56419;SDS011;42323;52.170;7.538;2023-06-19T07:14:16;4.82;;;3.20;;
56419;SDS011;42323;52.170;7.538;2023-06-19T07:16:44;4.57;;;3.30;;
56419;SDS011;42323;52.170;7.538;2023-06-19T07:19:11;4.05;;;2.92;;
56419;SDS011;42323;52.170;7.538;2023-06-19T07:21:39;4.93;;;2.70;;
56419;SDS011;42323;52.170;7.538;2023-06-19T07:24:06;4.70;;;3.10;;
56419;SDS011;42323;52.170;7.538;2023-06-19T07:26:33;4.13;;;2.72;;
56419;SDS011;42323;52.170;7.538;2023-06-19T07:29:00;5.25;;;2.90;;
56419;SDS011;42323;52.170;7.538;2023-06-19T07:31:26;4.05;;;2.80;;
56419;SDS011;42323;52.170;7.538;2023-06-19T07:33:53;4.88;;;2.67;;
56419;SDS011;42323;52.170;7.538;2023-06-19T07:36:19;3.78;;;2.72;;
56419;SDS011;42323;52.170;7.538;2023-06-19T07:38:46;3.75;;;2.40;;
56419;SDS011;42323;52.170;7.538;2023-06-19T07:41:12;4.30;;;2.60;;
56419;SDS011;42323;52.170;7.538;2023-06-19T07:43:39;3.25;;;2.42;;
56419;SDS011;42323;52.170;7.538;2023-06-19T07:46:05;4.50;;;2.20;;
56419;SDS011;42323;52.170;7.538;2023-06-19T07:48:32;5.10;;;2.60;;
56419;SDS011;42323;52.170;7.538;2023-06-19T07:50:59;3.88;;;2.60;;
56419;SDS011;42323;52.170;7.538;2023-06-19T07:53:25;4.75;;;2.35;;
56419;SDS011;42323;52.170;7.538;2023-06-19T07:55:52;3.03;;;2.38;;
56419;SDS011;42323;52.170;7.538;2023-06-19T07:58:18;4.00;;;2.60;;
56419;SDS011;42323;52.170;7.538;2023-06-19T08:00:45;3.88;;;2.30;;
56419;SDS011;42323;52.170;7.538;2023-06-19T08:03:11;4.50;;;2.70;;
56419;SDS011;42323;52.170;7.538;2023-06-19T08:05:38;4.05;;;2.45;;
56419;SDS011;42323;52.170;7.538;2023-06-19T08:08:05;4.53;;;3.00;;
56419;SDS011;42323;52.170;7.538;2023-06-19T08:10:31;3.90;;;2.97;;
56419;SDS011;42323;52.170;7.538;2023-06-19T08:12:58;4.05;;;3.00;;
56419;SDS011;42323;52.170;7.538;2023-06-19T08:15:25;4.78;;;3.33;;
56419;SDS011;42323;52.170;7.538;2023-06-19T08:17:51;3.73;;;2.73;;
56419;SDS011;42323;52.170;7.538;2023-06-19T08:20:18;4.78;;;3.13;;
56419;SDS011;42323;52.170;7.538;2023-06-19T08:22:46;4.78;;;2.72;;
56419;SDS011;42323;52.170;7.538;2023-06-19T08:25:12;5.63;;;3.00;;
56419;SDS011;42323;52.170;7.538;2023-06-19T08:27:39;5.22;;;3.17;;
56419;SDS011;42323;52.170;7.538;2023-06-19T08:30:06;4.70;;;3.05;;
56419;SDS011;42323;52.170;7.538;2023-06-19T08:32:33;4.20;;;3.00;;
56419;SDS011;42323;52.170;7.538;2023-06-19T08:35:01;4.43;;;3.33;;
56419;SDS011;42323;52.170;7.538;2023-06-19T08:37:28;5.22;;;2.70;;
56419;SDS011;42323;52.170;7.538;2023-06-19T08:39:54;4.13;;;2.92;;
56419;SDS011;42323;52.170;7.538;2023-06-19T08:42:24;3.65;;;2.70;;
56419;SDS011;42323;52.170;7.538;2023-06-19T08:44:50;3.30;;;2.63;;
56419;SDS011;42323;52.170;7.538;2023-06-19T08:47:17;3.38;;;2.65;;
56419;SDS011;42323;52.170;7.538;2023-06-19T08:49:44;4.57;;;2.80;;
56419;SDS011;42323;52.170;7.538;2023-06-19T08:52:10;3.78;;;2.85;;
56419;SDS011;42323;52.170;7.538;2023-06-19T08:54:37;3.40;;;2.63;;
56419;SDS011;42323;52.170;7.538;2023-06-19T08:57:10;3.22;;;2.40;;
56419;SDS011;42323;52.170;7.538;2023-06-19T08:59:38;3.25;;;2.58;;
56419;SDS011;42323;52.170;7.538;2023-06-19T09:02:05;3.97;;;2.50;;
56419;SDS011;42323;52.170;7.538;2023-06-19T09:04:32;3.83;;;2.50;;
56419;SDS011;42323;52.170;7.538;2023-06-19T09:07:01;3.55;;;2.30;;
56419;SDS011;42323;52.170;7.538;2023-06-19T09:09:29;2.95;;;2.10;;
56419;SDS011;42323;52.170;7.538;2023-06-19T09:11:58;3.78;;;2.35;;
56419;SDS011;42323;52.170;7.538;2023-06-19T09:17:06;3.72;;;2.30;;
56419;SDS011;42323;52.170;7.538;2023-06-19T09:19:37;4.45;;;2.33;;
56419;SDS011;42323;52.170;7.538;2023-06-19T09:22:07;3.92;;;2.40;;
56419;SDS011;42323;52.170;7.538;2023-06-19T09:24:37;3.20;;;2.00;;
56419;SDS011;42323;52.170;7.538;2023-06-19T09:27:09;2.70;;;2.30;;
56419;SDS011;42323;52.170;7.538;2023-06-19T09:29:43;3.13;;;2.22;;
56419;SDS011;42323;52.170;7.538;2023-06-19T09:32:16;3.35;;;2.15;;
56419;SDS011;42323;52.170;7.538;2023-06-19T09:34:49;2.70;;;2.33;;
56419;SDS011;42323;52.170;7.538;2023-06-19T09:37:27;3.70;;;2.10;;
56419;SDS011;42323;52.170;7.538;2023-06-19T09:39:56;3.67;;;2.10;;
56419;SDS011;42323;52.170;7.538;2023-06-19T09:42:30;2.97;;;2.17;;
56419;SDS011;42323;52.170;7.538;2023-06-19T09:45:02;4.32;;;2.38;;
56419;SDS011;42323;52.170;7.538;2023-06-19T09:47:52;2.88;;;2.38;;
56419;SDS011;42323;52.170;7.538;2023-06-19T09:50:22;4.55;;;2.13;;
56419;SDS011;42323;52.170;7.538;2023-06-19T09:52:54;2.70;;;2.10;;
56419;SDS011;42323;52.170;7.538;2023-06-19T09:55:21;5.30;;;2.30;;
56419;SDS011;42323;52.170;7.538;2023-06-19T09:57:50;3.08;;;2.03;;
56419;SDS011;42323;52.170;7.538;2023-06-19T10:00:19;3.65;;;1.80;;
56419;SDS011;42323;52.170;7.538;2023-06-19T10:02:49;3.35;;;1.88;;
56419;SDS011;42323;52.170;7.538;2023-06-19T10:05:16;3.72;;;2.05;;
56419;SDS011;42323;52.170;7.538;2023-06-19T10:07:45;2.35;;;1.90;;
56419;SDS011;42323;52.170;7.538;2023-06-19T10:10:26;2.67;;;2.00;;
56419;SDS011;42323;52.170;7.538;2023-06-19T10:12:59;2.58;;;1.70;;
56419;SDS011;42323;52.170;7.538;2023-06-19T10:15:27;3.53;;;2.05;;
56419;SDS011;42323;52.170;7.538;2023-06-19T10:18:01;3.13;;;1.92;;
56419;SDS011;42323;52.170;7.538;2023-06-19T10:20:36;3.30;;;1.90;;
56419;SDS011;42323;52.170;7.538;2023-06-19T10:23:23;3.20;;;2.00;;
56419;SDS011;42323;52.170;7.538;2023-06-19T10:30:52;2.67;;;2.28;;
56419;SDS011;42323;52.170;7.538;2023-06-19T10:33:21;3.60;;;2.20;;
56419;SDS011;42323;52.170;7.538;2023-06-19T10:35:49;2.42;;;2.00;;
56419;SDS011;42323;52.170;7.538;2023-06-19T10:38:16;3.05;;;2.03;;
56419;SDS011;42323;52.170;7.538;2023-06-19T10:40:43;3.08;;;2.08;;
56419;SDS011;42323;52.170;7.538;2023-06-19T10:43:11;3.40;;;2.20;;
56419;SDS011;42323;52.170;7.538;2023-06-19T10:45:38;3.30;;;2.10;;
56419;SDS011;42323;52.170;7.538;2023-06-19T10:48:05;2.57;;;2.10;;
56419;SDS011;42323;52.170;7.538;2023-06-19T10:50:36;3.80;;;2.30;;
56419;SDS011;42323;52.170;7.538;2023-06-19T10:53:04;2.78;;;2.40;;
56419;SDS011;42323;52.170;7.538;2023-06-19T10:55:31;3.10;;;2.10;;
56419;SDS011;42323;52.170;7.538;2023-06-19T10:58:01;3.73;;;2.37;;
56419;SDS011;42323;52.170;7.538;2023-06-19T11:00:28;3.03;;;2.20;;
56419;SDS011;42323;52.170;7.538;2023-06-19T11:02:57;3.00;;;2.10;;
56419;SDS011;42323;52.170;7.538;2023-06-19T11:05:25;4.97;;;2.60;;
56419;SDS011;42323;52.170;7.538;2023-06-19T11:07:56;2.60;;;2.10;;
56419;SDS011;42323;52.170;7.538;2023-06-19T11:10:27;4.05;;;2.20;;
56419;SDS011;42323;52.170;7.538;2023-06-19T11:12:56;4.05;;;2.28;;
56419;SDS011;42323;52.170;7.538;2023-06-19T11:15:30;3.47;;;2.13;;
56419;SDS011;42323;52.170;7.538;2023-06-19T11:17:58;2.65;;;2.22;;
56419;SDS011;42323;52.170;7.538;2023-06-19T11:20:26;3.03;;;2.20;;
56419;SDS011;42323;52.170;7.538;2023-06-19T11:22:55;3.35;;;2.28;;
56419;SDS011;42323;52.170;7.538;2023-06-19T11:25:23;3.50;;;2.30;;
56419;SDS011;42323;52.170;7.538;2023-06-19T11:27:50;2.85;;;2.20;;
56419;SDS011;42323;52.170;7.538;2023-06-19T11:30:18;3.65;;;2.42;;
56419;SDS011;42323;52.170;7.538;2023-06-19T11:32:48;3.05;;;2.30;;
56419;SDS011;42323;52.170;7.538;2023-06-19T11:35:17;4.28;;;2.33;;
56419;SDS011;42323;52.170;7.538;2023-06-19T11:37:43;4.20;;;2.70;;
56419;SDS011;42323;52.170;7.538;2023-06-19T11:40:10;5.80;;;2.60;;
56419;SDS011;42323;52.170;7.538;2023-06-19T11:42:48;3.72;;;2.53;;
56419;SDS011;42323;52.170;7.538;2023-06-19T11:45:17;3.57;;;2.50;;
56419;SDS011;42323;52.170;7.538;2023-06-19T11:47:44;3.70;;;2.90;;
56419;SDS011;42323;52.170;7.538;2023-06-19T11:50:13;3.58;;;2.80;;
56419;SDS011;42323;52.170;7.538;2023-06-19T11:52:42;4.20;;;3.15;;
56419;SDS011;42323;52.170;7.538;2023-06-19T11:55:10;4.80;;;3.22;;
56419;SDS011;42323;52.170;7.538;2023-06-19T11:57:38;3.50;;;2.60;;
56419;SDS011;42323;52.170;7.538;2023-06-19T12:00:11;5.57;;;2.95;;
56419;SDS011;42323;52.170;7.538;2023-06-19T12:02:41;3.53;;;2.60;;
56419;SDS011;42323;52.170;7.538;2023-06-19T12:05:08;3.42;;;2.90;;
56419;SDS011;42323;52.170;7.538;2023-06-19T12:07:35;4.45;;;3.13;;
56419;SDS011;42323;52.170;7.538;2023-06-19T12:10:02;4.07;;;3.05;;
56419;SDS011;42323;52.170;7.538;2023-06-19T12:12:29;4.22;;;2.70;;
56419;SDS011;42323;52.170;7.538;2023-06-19T12:14:57;4.00;;;3.03;;
56419;SDS011;42323;52.170;7.538;2023-06-19T12:17:23;3.80;;;2.95;;
56419;SDS011;42323;52.170;7.538;2023-06-19T12:19:50;3.97;;;2.97;;
56419;SDS011;42323;52.170;7.538;2023-06-19T12:22:16;5.75;;;3.28;;
56419;SDS011;42323;52.170;7.538;2023-06-19T12:24:43;5.63;;;3.30;;
56419;SDS011;42323;52.170;7.538;2023-06-19T12:27:10;4.30;;;3.30;;
56419;SDS011;42323;52.170;7.538;2023-06-19T12:29:36;5.22;;;2.97;;
56419;SDS011;42323;52.170;7.538;2023-06-19T12:32:03;4.70;;;3.22;;
56419;SDS011;42323;52.170;7.538;2023-06-19T12:34:30;4.53;;;3.30;;
56419;SDS011;42323;52.170;7.538;2023-06-19T12:36:57;5.07;;;3.33;;
56419;SDS011;42323;52.170;7.538;2023-06-19T12:39:24;4.75;;;3.30;;
56419;SDS011;42323;52.170;7.538;2023-06-19T12:41:51;3.97;;;3.25;;
56419;SDS011;42323;52.170;7.538;2023-06-19T12:44:18;3.75;;;3.20;;
56419;SDS011;42323;52.170;7.538;2023-06-19T12:46:45;4.80;;;3.33;;
56419;SDS011;42323;52.170;7.538;2023-06-19T12:49:11;4.65;;;3.45;;
56419;SDS011;42323;52.170;7.538;2023-06-19T12:51:38;4.57;;;3.33;;
56419;SDS011;42323;52.170;7.538;2023-06-19T12:54:04;3.47;;;3.00;;
56419;SDS011;42323;52.170;7.538;2023-06-19T12:56:31;5.13;;;3.40;;
56419;SDS011;42323;52.170;7.538;2023-06-19T12:58:57;3.70;;;3.25;;
56419;SDS011;42323;52.170;7.538;2023-06-19T13:01:24;4.88;;;3.20;;
56419;SDS011;42323;52.170;7.538;2023-06-19T13:03:51;4.55;;;3.38;;
56419;SDS011;42323;52.170;7.538;2023-06-19T13:06:17;5.68;;;3.42;;
56419;SDS011;42323;52.170;7.538;2023-06-19T13:08:45;6.53;;;3.83;;
56419;SDS011;42323;52.170;7.538;2023-06-19T13:11:12;4.72;;;3.50;;
56419;SDS011;42323;52.170;7.538;2023-06-19T13:13:38;4.23;;;3.33;;
56419;SDS011;42323;52.170;7.538;2023-06-19T13:16:05;4.50;;;3.55;;
56419;SDS011;42323;52.170;7.538;2023-06-19T13:18:31;4.68;;;3.75;;
56419;SDS011;42323;52.170;7.538;2023-06-19T13:20:58;5.17;;;4.00;;
56419;SDS011;42323;52.170;7.538;2023-06-19T13:23:24;5.33;;;3.87;;
56419;SDS011;42323;52.170;7.538;2023-06-19T13:25:51;5.10;;;3.90;;
56419;SDS011;42323;52.170;7.538;2023-06-19T13:28:17;5.70;;;4.20;;
56419;SDS011;42323;52.170;7.538;2023-06-19T13:30:44;5.70;;;3.80;;
56419;SDS011;42323;52.170;7.538;2023-06-19T13:33:10;5.30;;;4.45;;
56419;SDS011;42323;52.170;7.538;2023-06-19T13:35:37;5.97;;;4.22;;
56419;SDS011;42323;52.170;7.538;2023-06-19T13:38:04;4.80;;;4.00;;
56419;SDS011;42323;52.170;7.538;2023-06-19T13:40:30;4.90;;;3.85;;
56419;SDS011;42323;52.170;7.538;2023-06-19T13:42:57;6.30;;;4.25;;
56419;SDS011;42323;52.170;7.538;2023-06-19T13:45:25;5.35;;;4.18;;
56419;SDS011;42323;52.170;7.538;2023-06-19T13:47:51;5.00;;;4.10;;
56419;SDS011;42323;52.170;7.538;2023-06-19T13:50:18;4.53;;;4.10;;
56419;SDS011;42323;52.170;7.538;2023-06-19T13:52:47;6.05;;;4.00;;
56419;SDS011;42323;52.170;7.538;2023-06-19T13:55:14;4.70;;;3.85;;
56419;SDS011;42323;52.170;7.538;2023-06-19T13:57:42;4.17;;;3.50;;
56419;SDS011;42323;52.170;7.538;2023-06-19T14:00:09;4.32;;;3.58;;
56419;SDS011;42323;52.170;7.538;2023-06-19T14:02:38;4.72;;;3.80;;
56419;SDS011;42323;52.170;7.538;2023-06-19T14:05:05;4.93;;;3.90;;
56419;SDS011;42323;52.170;7.538;2023-06-19T14:07:33;4.60;;;3.58;;
56419;SDS011;42323;52.170;7.538;2023-06-19T14:10:01;4.60;;;3.53;;
56419;SDS011;42323;52.170;7.538;2023-06-19T14:12:30;5.10;;;3.90;;
56419;SDS011;42323;52.170;7.538;2023-06-19T14:14:56;4.80;;;3.80;;
56419;SDS011;42323;52.170;7.538;2023-06-19T14:17:23;4.55;;;4.00;;
56419;SDS011;42323;52.170;7.538;2023-06-19T14:19:50;4.50;;;4.10;;
56419;SDS011;42323;52.170;7.538;2023-06-19T14:22:21;4.32;;;3.92;;
56419;SDS011;42323;52.170;7.538;2023-06-19T14:24:48;5.38;;;4.03;;
56419;SDS011;42323;52.170;7.538;2023-06-19T14:27:15;5.70;;;3.90;;
56419;SDS011;42323;52.170;7.538;2023-06-19T14:29:42;6.30;;;4.47;;
56419;SDS011;42323;52.170;7.538;2023-06-19T14:32:08;4.93;;;4.30;;
56419;SDS011;42323;52.170;7.538;2023-06-19T14:34:35;5.25;;;4.20;;
56419;SDS011;42323;52.170;7.538;2023-06-19T14:37:01;5.43;;;4.30;;
56419;SDS011;42323;52.170;7.538;2023-06-19T14:39:28;5.38;;;4.07;;
56419;SDS011;42323;52.170;7.538;2023-06-19T14:41:55;4.03;;;3.67;;
56419;SDS011;42323;52.170;7.538;2023-06-19T14:44:21;5.32;;;4.03;;
56419;SDS011;42323;52.170;7.538;2023-06-19T14:46:48;4.75;;;4.00;;
56419;SDS011;42323;52.170;7.538;2023-06-19T14:49:14;4.45;;;3.72;;
56419;SDS011;42323;52.170;7.538;2023-06-19T14:51:42;4.50;;;4.10;;
56419;SDS011;42323;52.170;7.538;2023-06-19T14:54:08;4.95;;;3.85;;
56419;SDS011;42323;52.170;7.538;2023-06-19T14:56:35;5.57;;;4.38;;
56419;SDS011;42323;52.170;7.538;2023-06-19T14:59:02;5.70;;;4.10;;
56419;SDS011;42323;52.170;7.538;2023-06-19T15:01:28;5.25;;;4.18;;
56419;SDS011;42323;52.170;7.538;2023-06-19T15:03:55;4.68;;;4.05;;